Terminal Aerodrome Forecast
Issued by NWS

Home | Current Version | Previous Version | Text Only | Print | Product List | Glossary On
Versions: 1 2 3 4 5 6 7 8 9 10 11 12 13 14 15 16 17 18 19 20
000
FTUS43 KAPX 271412 AAB
TAFAPN
TAF AMD
KAPN 271412Z 2714/2812 VRB03KT P6SM OVC004
     FM271800 29004KT P6SM OVC008
     FM280000 29004KT P6SM OVC015
     FM280900 35005KT P6SM OVC010
     FM281100 36004KT P6SM BKN025=

USA.gov is the U.S. government's official web portal to all federal, state and local government web resources and services.